Dutch Harbor, Alaska
Current Conditions -  °F | °C
As of 12:56 AM on Friday 21 Nov 2014 (Local Time) from PADU Reporting Station
Light Rain Light Rain  
Wind Chill: 33°   Ceiling: 2500
Heat Index: 42°   Visibility: 10mi
Dew Point: 34°   Wind: 22mph
Humidity: 73%   Direction: 300°WNW
Pressure: 28.72"   Gusts: 28mph
Location:  53.51°N, 167.06°W
Report Text: PADU 210956Z AUTO 30019G24KT 10SM -RA OVC025 06/01 A2872 RMK AO2 PK WND 31031/0904 SLP731 P0000 T00560011
Loading
Personal Weather Stations






























Interactive Weather Map New forecast layout! Learn more

10-Day Weather Forecast

Advertisements
Track Severe Weather on mobile